Latest Coastal Weather Observations for Samuel Hill

IDQ60701

Issued at 10:12 am EST Thursday 28 May 2015 (issued every 10 minutes, with the page automatically refreshed every 10 minutes)

About coastal observations | Map of coastal stations | Coastal observations for QLD | Marine services | Other Formats
Station Details ID: 033308 Name: SAMUEL HILL AERO Lat: -22.74 Lon: 150.66 Height: 31.0 m
Data from the previous 72 hours. | See also: Recent months at Samuel Hill
Date/Time
EST
Temp

°C
Wind Pressure Rain
since 9am
mm
Weather Cloud Vis
km
Sea
Height
m
Swell
Dir
 
Speed
knots
Gust
knots
hPa Trend Height
m
Period
s
Dir
28/10:00am 22.6 SSE 7 12 1022.4 - 0.0 - Partly cloudy 10 - - - -
28/09:30am 22.3 SSE 8 12 1022.5 - 0.0 - Partly cloudy 10 - - - -
28/09:00am 21.2 SSE 8 11 1022.6 - 0.4 - Partly cloudy 10 - - - -
28/08:30am 20.4 SSE 8 13 1022.3 - 0.4 - - 10 - - - -
28/08:00am 19.2 SSE 7 9 1022.0 - 0.4 - Partly cloudy 10 - - - -
28/07:30am 18.7 SSE 6 9 1021.7 - 0.4 - Partly cloudy 10 - - - -
28/07:00am 18.3 SSE 4 6 1021.4 - 0.4 - Partly cloudy 10 - - - -
28/06:46am 18.2 SE 5 7 1021.4 - 0.4 - Partly cloudy 10 - - - -
28/06:43am 18.2 SSE 6 8 1021.4 - 0.4 - Partly cloudy 10 - - - -
28/06:30am 17.7 SSE 4 8 1021.2 - 0.4 - Partly cloudy 4 - - - -
28/06:24am 17.5 SSE 4 6 1021.1 - 0.2 - Partly cloudy 7 - - - -
28/06:00am 17.3 SSE 5 6 1020.8 - 0.0 - Mostly clear 9 - - - -
28/05:30am 17.4 SSE 5 7 1020.6 - 0.0 - Partly cloudy 10 - - - -
28/05:00am 17.5 SE 5 7 1020.3 - 0.0 - Partly cloudy 10 - - - -
28/04:30am 17.6 SSE 5 7 1020.1 - 0.0 - - 10 - - - -
28/04:00am 17.5 SE 4 5 1019.9 - 0.0 - - 10 - - - -
28/03:30am 17.8 SSE 6 8 1020.0 - 0.0 - - 10 - - - -
28/03:00am 17.9 SSE 6 7 1020.0 - 0.0 - - 10 - - - -
28/02:30am 17.5 E 4 5 1020.2 - 0.0 - Partly cloudy 10 - - - -
28/02:00am 17.3 SE 3 4 1020.6 - 0.0 - - 10 - - - -
28/01:30am 17.6 SE 3 4 1020.8 - 0.0 - - 10 - - - -
28/01:00am 18.2 SSE 4 5 1020.9 - 0.0 - - 10 - - - -
28/12:30am 18.1 S 5 7 1020.9 - 0.0 - - 10 - - - -
28/12:00am 16.2 S 3 4 1020.5 - 0.0 - - 10 - - - -
 
Date/Time
EST
Temp

°C
Wind Pressure Rain
since 9am
mm
Weather Cloud Vis
km
Sea
Height
m
Swell
Dir
 
Speed
knots
Gust
knots
hPa Trend Height
m
Period
s
Dir
27/11:30pm 16.4 SSE 3 4 1020.8 - 0.0 - - 10 - - - -
27/11:00pm 18.2 S 4 6 1021.3 - 0.0 - Partly cloudy 10 - - - -
27/10:30pm 17.7 S 3 5 1021.4 - 0.0 - - 10 - - - -
27/10:00pm 18.3 SSE 5 6 1021.3 - 0.0 - - 10 - - - -
27/09:30pm 18.3 SSE 4 6 1021.2 - 0.0 - - 10 - - - -
27/09:00pm 18.5 S 5 6 1021.3 - 0.0 - - 10 - - - -
27/08:30pm 18.6 SSE 5 6 1021.2 - 0.0 - - 10 - - - -
27/08:00pm 18.6 SSE 4 6 1021.0 - 0.0 - - 10 - - - -
27/07:30pm 18.5 SSE 5 5 1021.3 - 0.0 - - 10 - - - -
27/07:00pm 19.1 S 4 5 1021.1 - 0.0 - - 10 - - - -
27/06:30pm 19.5 S 2 4 1020.9 - 0.0 - Partly cloudy 10 - - - -
27/06:00pm 19.9 SE 4 5 1020.6 - 0.0 - Mostly clear 10 - - - -
27/05:30pm 20.7 SE 6 10 1020.5 - 0.0 - Partly cloudy 10 - - - -
27/05:00pm 21.3 SE 7 11 1020.2 - 0.0 - - 10 - - - -
27/04:30pm 22.1 SE 8 13 1019.9 - 0.0 - Partly cloudy 10 - - - -
27/04:00pm 22.4 SE 8 12 1019.9 - 0.0 - Partly cloudy 10 - - - -
27/03:30pm 22.3 SE 9 13 1020.1 - 0.0 - Partly cloudy 10 - - - -
27/03:00pm 23.0 SE 9 13 1019.8 - 0.0 - Partly cloudy 10 - - - -
27/02:30pm 23.5 SE 8 12 1019.9 - 0.0 - Partly cloudy 10 - - - -
27/02:00pm 23.2 ESE 9 14 1020.0 - 0.0 - Partly cloudy 10 - - - -
27/01:30pm 22.6 SE 10 15 1020.1 - 0.0 - Partly cloudy 10 - - - -
27/01:00pm 23.2 SE 9 13 1020.3 - 0.0 - Partly cloudy 10 - - - -
27/12:30pm 23.9 ESE 9 14 1020.8 - 0.0 - - 10 - - - -
27/12:00pm 22.6 SE 11 16 1021.5 - 0.0 - Partly cloudy 10 - - - -
27/11:30am 23.6 ESE 10 16 1022.1 - 0.0 - Partly cloudy 10 - - - -
27/11:00am 23.3 SE 9 15 1022.2 - 0.0 - Partly cloudy 10 - - - -
27/10:30am 22.5 SSE 7 12 1022.6 - 0.0 - Partly cloudy 10 - - - -
27/10:00am 21.3 SSE 8 12 1022.8 - 0.0 - Partly cloudy 10 - - - -
27/09:30am 21.5 SSE 10 14 1022.9 - 0.0 - Partly cloudy 10 - - - -
27/09:00am 20.5 SSE 9 13 1022.7 - 0.2 - Mostly clear 10 - - - -
27/08:30am 20.3 SSE 9 14 1022.8 - 0.2 - Partly cloudy 10 - - - -
27/08:00am 19.3 SSE 8 11 1022.5 - 0.2 - - 10 - - - -
27/07:30am 18.4 SSE 5 8 1022.3 - 0.2 - - 10 - - - -
27/07:00am 17.3 S 5 6 1021.9 - 0.2 - Partly cloudy 10 - - - -
27/06:30am 17.3 S 5 7 1021.7 - 0.2 - - 10 - - - -
27/06:05am 17.5 S 6 9 1021.5 - 0.2 - Partly cloudy 10 - - - -
27/06:00am 17.5 S 6 10 1021.5 - 0.2 - Partly cloudy 10 - - - -
27/05:38am 17.7 S 5 7 1021.2 - 0.2 - Partly cloudy 10 - - - -
27/05:30am 17.7 S 5 7 1021.1 - 0.2 - Partly cloudy 10 - - - -
27/05:00am 17.8 S 5 9 1020.7 - 0.2 - Partly cloudy 10 - - - -
27/04:30am 17.9 S 5 7 1020.6 - 0.2 - Partly cloudy 10 - - - -
27/04:00am 18.1 S 5 8 1020.5 - 0.2 - Partly cloudy 10 - - - -
27/03:30am 18.0 SSE 4 6 1020.8 - 0.2 - Partly cloudy 10 - - - -
27/03:00am 17.7 SSE 4 5 1020.9 - 0.2 - Mostly clear 10 - - - -
27/02:30am 17.7 S 4 5 1021.2 - 0.2 - - 10 - - - -
27/02:00am 17.7 S 4 5 1021.5 - 0.2 - - 10 - - - -
27/01:30am 17.3 SE 2 3 1021.6 - 0.2 - Partly cloudy 10 - - - -
27/01:00am 17.6 S 4 5 1021.9 - 0.2 - Partly cloudy 10 - - - -
27/12:30am 17.3 S 4 5 1022.0 - 0.2 - Partly cloudy 10 - - - -
27/12:00am 17.2 S 3 4 1022.0 - 0.2 - - 10 - - - -
 
Date/Time
EST
Temp

°C
Wind Pressure Rain
since 9am
mm
Weather Cloud Vis
km
Sea
Height
m
Swell
Dir
 
Speed
knots
Gust
knots
hPa Trend Height
m
Period
s
Dir
26/11:30pm 16.7 CALM 0 0 1022.4 - 0.2 - - 10 - - - -
26/11:00pm 18.2 S 4 5 1022.8 - 0.2 - Partly cloudy 10 - - - -
26/10:30pm 18.1 S 4 5 1023.3 - 0.2 - Partly cloudy 10 - - - -
26/10:00pm 18.2 SSE 4 5 1023.3 - 0.2 - Partly cloudy 10 - - - -
26/09:30pm 18.1 SE 3 4 1023.2 - 0.2 - Partly cloudy 10 - - - -
26/09:00pm 18.6 SSE 1 4 1023.5 - 0.2 - Partly cloudy 10 - - - -
26/08:30pm 19.0 SE 2 3 1023.5 - 0.2 - Cloudy 10 - - - -
26/08:00pm 19.3 SSE 4 5 1023.8 - 0.2 - Cloudy 10 - - - -
26/07:30pm 19.3 S 2 3 1023.5 - 0.2 - Partly cloudy 10 - - - -
26/07:00pm 19.3 SSE 4 7 1023.1 - 0.2 - Cloudy 10 - - - -
26/06:30pm 19.5 SSE 5 7 1022.9 - 0.2 - Cloudy 10 - - - -
26/06:00pm 19.2 SE 5 7 1022.5 - 0.2 - Cloudy 10 - - - -
26/05:30pm 19.5 SSE 7 10 1022.4 - 0.2 - Partly cloudy 10 - - - -
26/05:00pm 20.1 SE 6 8 1022.2 - 0.2 - Partly cloudy 10 - - - -
26/04:30pm 21.5 SSE 6 9 1021.9 - 0.2 - Partly cloudy 10 - - - -
26/04:00pm 21.8 SE 10 14 1021.7 - 0.2 - Partly cloudy 10 - - - -
26/03:30pm 22.3 SE 11 15 1021.6 - 0.2 - Partly cloudy 10 - - - -
26/03:00pm 22.2 ESE 11 16 1021.6 - 0.2 - Mostly clear 10 - - - -
26/02:30pm 22.5 SE 12 19 1021.9 - 0.2 - Partly cloudy 10 - - - -
26/02:00pm 22.1 SE 9 13 1022.3 - 0.2 - Partly cloudy 10 - - - -
26/01:30pm 22.5 SSE 10 16 1022.4 - 0.2 - Partly cloudy 10 - - - -
26/01:00pm 22.2 SSE 11 17 1022.8 - 0.2 - Partly cloudy 10 - - - -
26/12:30pm 22.3 SE 13 18 1023.4 - 0.2 - Partly cloudy 10 - - - -
26/12:00pm 21.7 SSE 14 20 1023.8 - 0.2 - Partly cloudy 10 - - - -
26/11:30am 21.5 SSE 11 15 1024.3 - 0.2 - Partly cloudy 10 - - - -
26/11:00am 21.2 SSE 9 13 1024.8 - 0.2 - Partly cloudy 10 - - - -
26/10:52am 20.8 SE 8 16 1025.0 - 0.2 - Partly cloudy 10 - - - -
26/10:37am 20.1 SE 9 13 1025.2 - 0.0 - Partly cloudy 7 - - - -
26/10:30am 20.5 SSE 9 13 1025.3 - 0.0 - Partly cloudy 10 - - - -
26/10:00am 20.7 SSE 10 15 1025.4 - 0.0 - Partly cloudy 10 - - - -
26/09:58am 20.6 SSE 10 15 1025.5 - 0.0 - Partly cloudy 10 - - - -
26/09:47am 20.6 SSE 10 15 1025.3 - 0.0 - Partly cloudy 10 - - - -
26/09:30am 20.2 SE 11 16 1025.2 - 0.0 - Partly cloudy 10 - - - -
26/09:00am 20.0 SSE 10 15 1025.2 - 5.8 - Partly cloudy 10 - - - -
26/08:30am 19.2 SSE 9 14 1025.4 - 5.8 - - 10 - - - -
26/08:00am 18.1 SSE 7 10 1025.3 - 5.8 - Partly cloudy 10 - - - -
26/07:44am 17.4 S 7 10 1025.4 - 5.8 - Partly cloudy 10 - - - -
26/07:30am 17.6 SSE 6 9 1025.3 - 5.8 - Partly cloudy 10 - - - -
26/07:14am 17.2 SSE 6 8 1025.2 - 5.8 - Partly cloudy 10 - - - -
26/07:00am 17.0 S 6 9 1025.2 - 5.8 - Partly cloudy 10 - - - -
26/06:49am 17.1 SSE 6 8 1025.3 - 5.8 - Partly cloudy 10 - - - -
26/06:30am 17.2 S 6 9 1025.2 - 5.8 - Partly cloudy 6 - - - -
26/06:29am 17.2 S 6 9 1025.2 - 5.8 - Partly cloudy 7 - - - -
26/06:24am 17.3 S 7 10 1025.2 - 5.6 - Partly cloudy 10 - - - -
26/06:00am 17.1 SSE 5 7 1025.0 - 5.6 Recent precip. Cloudy 10 - - - -
26/05:30am 17.2 S 6 10 1025.0 - 4.8 - Partly cloudy 1 - - - -
26/05:21am 17.4 S 6 9 1024.9 - 3.4 - Partly cloudy 6 - - - -
26/05:09am 17.4 S 7 11 1024.9 - 3.0 - Partly cloudy 10 - - - -
26/05:00am 17.4 S 7 10 1024.6 - 3.0 - Partly cloudy 8 - - - -
26/04:30am 17.4 SSW 4 7 1024.4 - 2.6 - Partly cloudy 10 - - - -
26/04:25am 17.3 SSW 4 9 1024.5 - 2.6 - Partly cloudy 7 - - - -
26/04:00am 17.6 S 8 13 1024.4 - 1.2 - Partly cloudy 8 - - - -
26/03:47am 17.8 SSE 10 15 1024.4 - 1.2 - Partly cloudy 7 - - - -
26/03:30am 18.0 S 7 12 1024.5 - 1.2 - Partly cloudy 10 - - - -
26/03:00am 18.0 SSE 8 11 1024.3 - 1.2 - Cloudy 10 - - - -
26/02:30am 18.3 SSE 9 15 1024.6 - 1.2 - Partly cloudy 10 - - - -
26/02:00am 18.9 SSE 9 13 1024.6 - 1.2 - Partly cloudy 10 - - - -
26/01:52am 19.1 SSE 9 14 1024.7 - 1.2 - Partly cloudy 10 - - - -
26/01:30am 18.9 SSE 6 10 1024.8 - 1.2 - Partly cloudy 10 - - - -
26/01:22am 18.8 SSE 7 11 1024.8 - 1.2 - Partly cloudy 10 - - - -
26/01:00am 19.1 SSE 8 13 1024.9 - 1.2 - Partly cloudy 10 - - - -
26/12:30am 19.1 SSE 9 15 1025.2 - 1.2 - Partly cloudy 10 - - - -
26/12:24am 19.1 SSE 8 15 1025.2 - 1.2 - Partly cloudy 10 - - - -
26/12:01am 19.0 SE 7 11 1025.2 - 1.2 - Partly cloudy 10 - - - -
26/12:00am 19.1 SE 7 11 1025.2 - 1.2 - Cloudy 10 - - - -
 
Date/Time
EST
Temp

°C
Wind Pressure Rain
since 9am
mm
Weather Cloud Vis
km
Sea
Height
m
Swell
Dir
 
Speed
knots
Gust
knots
hPa Trend Height
m
Period
s
Dir
25/11:30pm 18.7 SSE 7 9 1025.3 - 1.2 - Partly cloudy 10 - - - -
25/11:00pm 18.9 SE 9 16 1025.5 - 1.2 - Partly cloudy 10 - - - -
25/10:33pm 18.7 SE 4 6 1025.8 - 1.2 - Partly cloudy 10 - - - -
25/10:30pm 18.7 SE 4 7 1025.7 - 1.2 - Partly cloudy 10 - - - -
25/10:23pm 18.9 ESE 4 7 1025.8 - 1.2 - Partly cloudy 7 - - - -
25/10:00pm 19.3 SE 8 11 1026.0 - 1.2 - Partly cloudy 10 - - - -
25/09:30pm 19.9 SE 9 14 1025.7 - 1.2 - Partly cloudy 10 - - - -
25/09:00pm 19.4 SE 8 14 1025.7 - 1.2 - Mostly clear 10 - - - -
25/08:30pm 19.1 SSE 5 8 1025.6 - 1.2 - Partly cloudy 10 - - - -
25/08:00pm 19.3 SSE 6 8 1025.2 - 1.2 - Partly cloudy 10 - - - -
25/07:30pm 19.8 SE 5 8 1024.9 - 1.2 - Partly cloudy 10 - - - -
25/07:00pm 19.9 SSE 7 12 1024.8 - 1.2 - Partly cloudy 10 - - - -
25/06:30pm 20.0 SE 6 9 1024.7 - 1.0 - Partly cloudy 10 - - - -
25/06:00pm 20.0 SE 7 10 1024.5 - 1.0 - Partly cloudy 10 - - - -
25/05:30pm 20.2 SE 7 12 1024.4 - 1.0 - - 10 - - - -
25/05:00pm 20.9 SE 8 13 1024.5 - 1.0 - Partly cloudy 10 - - - -
25/04:30pm 21.3 SE 10 15 1024.3 - 1.0 - Partly cloudy 10 - - - -
25/04:00pm 21.7 SE 9 16 1024.3 - 1.0 - Partly cloudy 10 - - - -
25/03:30pm 21.6 SE 12 17 1024.2 - 1.0 - Partly cloudy 10 - - - -
25/03:24pm 21.7 SE 10 17 1024.2 - 1.0 - Partly cloudy 10 - - - -
25/03:04pm 21.1 SE 9 15 1024.3 - 1.0 - Partly cloudy 6 - - - -
25/03:00pm 21.8 SE 9 15 1024.2 - 0.6 - Cloudy 10 - - - -
25/02:30pm 21.9 SE 11 17 1024.3 - 0.6 - Partly cloudy 10 - - - -
25/02:00pm 23.2 ESE 9 13 1024.1 - 0.6 - Partly cloudy 10 - - - -
25/01:30pm 22.3 SE 9 13 1024.3 - 0.6 - Partly cloudy 10 - - - -
25/01:00pm 21.8 SSE 9 17 1024.6 - 0.6 - Partly cloudy 10 - - - -
25/12:39pm 21.7 SSE 11 15 1024.8 - 0.6 - Partly cloudy 10 - - - -
25/12:30pm 21.2 SSE 11 17 1025.0 - 0.6 - Partly cloudy 10 - - - -
25/12:00pm 19.8 SSE 9 14 1025.6 - 0.6 Recent precip. Cloudy 10 - - - -
25/11:58am 19.7 SSE 9 14 1025.6 - 0.6 - Partly cloudy 10 - - - -
25/11:52am 19.4 SSE 9 15 1025.6 - 0.6 - Partly cloudy 10 - - - -
25/11:46am 19.7 SSE 9 15 1025.7 - 0.6 - Partly cloudy 10 - - - -
25/11:33am 19.6 SE 9 17 1025.9 - 0.6 - Partly cloudy 3 - - - -
25/11:30am 19.4 SE 9 17 1026.0 - 0.6 - Partly cloudy 4 - - - -
25/11:25am 19.8 SSE 9 17 1026.1 - 0.4 - Partly cloudy 6 - - - -
25/11:00am 20.1 SSE 11 16 1026.4 - 0.0 - Partly cloudy 10 - - - -
25/10:30am 20.5 SSE 11 18 1026.7 - 0.0 - Partly cloudy 10 - - - -

Other Formats:

Comma delimited format used in spreadsheet applications
http://www.bom.gov.au/fwo/IDQ60701/IDQ60701.94370.axf

JavaScript Object Notation format (JSON) in row-major order
http://www.bom.gov.au/fwo/IDQ60701/IDQ60701.94370.json